createdAt,value
2022-07-29T00:01:09.363Z,98996.19
2022-07-29T00:03:46.771Z,98871.25
2022-07-29T00:06:15.032Z,98749.31
2022-07-29T00:08:42.272Z,98931.19
2022-07-29T00:11:09.730Z,98799.88
2022-07-29T00:13:36.747Z,98919.56
2022-07-29T00:16:04.711Z,98921.16
2022-07-29T00:18:32.924Z,98948.53
2022-07-29T00:21:00.185Z,99014.38
2022-07-29T00:23:27.540Z,98957.91
2022-07-29T00:25:55.053Z,99119.34
2022-07-29T00:28:22.166Z,98945.59
2022-07-29T00:30:49.320Z,98831.84
2022-07-29T00:33:16.622Z,98831.97
2022-07-29T00:35:47.089Z,98894.47
2022-07-29T00:38:18.295Z,99050.81
2022-07-29T00:40:46.149Z,99079.81
2022-07-29T00:43:14.735Z,99051.69
2022-07-29T00:45:44.433Z,99010.00
2022-07-29T00:48:11.493Z,98974.09
2022-07-29T00:50:39.777Z,99053.09
2022-07-29T00:53:08.882Z,99042.44
2022-07-29T00:55:36.518Z,98924.94
2022-07-29T00:58:04.208Z,99002.56
2022-07-29T01:00:31.784Z,98955.13
2022-07-29T01:02:59.327Z,98888.38
2022-07-29T01:05:49.801Z,98927.56
2022-07-29T01:08:18.185Z,98937.94
2022-07-29T01:10:47.053Z,98835.19
2022-07-29T01:13:15.873Z,99028.09
2022-07-29T01:16:08.287Z,99041.19
2022-07-29T01:18:40.446Z,98811.44
2022-07-29T01:21:51.942Z,99054.28
2022-07-29T01:25:28.306Z,99017.09
2022-07-29T01:28:11.786Z,98858.16
2022-07-29T01:30:42.938Z,98914.34
2022-07-29T01:33:36.414Z,98935.19
2022-07-29T01:36:12.779Z,99039.94
2022-07-29T01:38:43.190Z,99000.72
2022-07-29T01:41:16.365Z,98874.84
2022-07-29T01:44:02.349Z,98952.66
2022-07-29T01:46:38.396Z,98980.03
2022-07-29T01:49:21.120Z,98831.84
2022-07-29T01:51:54.036Z,98828.44
2022-07-29T01:54:46.679Z,98892.69
2022-07-29T01:57:21.023Z,98928.66
2022-07-29T01:59:49.551Z,98928.88
2022-07-29T02:02:19.220Z,98904.97
2022-07-29T02:04:49.596Z,98980.97
2022-07-29T02:07:25.655Z,98847.13
2022-07-29T02:09:53.799Z,98796.16
2022-07-29T02:12:23.044Z,98877.13
2022-07-29T02:14:53.931Z,98958.59
2022-07-29T02:17:32.017Z,98911.59
2022-07-29T02:20:02.787Z,99022.41
2022-07-29T02:22:34.445Z,99035.28
2022-07-29T02:25:03.129Z,99051.75
2022-07-29T02:27:33.572Z,99036.16
2022-07-29T02:30:03.853Z,98883.28
2022-07-29T02:32:35.173Z,98948.41
2022-07-29T02:35:04.436Z,98950.88
2022-07-29T02:37:33.055Z,98790.59
2022-07-29T02:40:02.690Z,98962.53
2022-07-29T02:42:32.257Z,99020.38
2022-07-29T02:44:59.453Z,99000.47
2022-07-29T02:47:43.054Z,98967.31
2022-07-29T02:50:16.755Z,98942.81
2022-07-29T02:53:08.433Z,98983.66
2022-07-29T02:55:45.976Z,98834.75
2022-07-29T02:58:39.001Z,98888.84
2022-07-29T03:01:20.913Z,99034.56
2022-07-29T03:03:52.725Z,99044.66
2022-07-29T03:06:28.137Z,98968.00
2022-07-29T03:09:12.786Z,99065.38
2022-07-29T03:11:50.230Z,99018.81
2022-07-29T03:14:21.865Z,99074.56
2022-07-29T03:16:51.124Z,98990.94
2022-07-29T03:19:20.030Z,98909.47
2022-07-29T03:21:47.456Z,98981.72
2022-07-29T03:24:37.808Z,98992.69
2022-07-29T03:27:06.607Z,98935.03
2022-07-29T03:29:34.722Z,99036.03
2022-07-29T03:32:07.849Z,99013.38
2022-07-29T03:34:36.823Z,99001.25
2022-07-29T03:37:04.503Z,98975.63
2022-07-29T03:39:37.465Z,99093.56
2022-07-29T03:42:06.418Z,99058.09
2022-07-29T03:44:34.890Z,99078.09
2022-07-29T03:47:03.163Z,99033.00
2022-07-29T03:49:31.856Z,98989.75
2022-07-29T03:51:59.563Z,99028.34
2022-07-29T03:54:27.324Z,99130.88
2022-07-29T03:56:58.607Z,99105.44
2022-07-29T03:59:25.950Z,99053.47
2022-07-29T04:01:53.920Z,99095.72
2022-07-29T04:04:21.106Z,99142.13
2022-07-29T04:06:48.602Z,99099.47
2022-07-29T04:09:15.752Z,99103.91
2022-07-29T04:11:57.125Z,99046.88
2022-07-29T04:14:33.199Z,99102.34
2022-07-29T04:17:04.520Z,99085.94
2022-07-29T04:22:18.643Z,99061.91
2022-07-29T04:24:46.456Z,99088.09
2022-07-29T04:27:13.619Z,99049.28
2022-07-29T04:29:57.015Z,99071.72
2022-07-29T04:32:26.562Z,99018.56
2022-07-29T04:34:53.640Z,99027.84
2022-07-29T04:37:20.715Z,99085.81
2022-07-29T04:39:47.935Z,99073.09
2022-07-29T04:42:15.097Z,98973.16
2022-07-29T04:44:44.300Z,99039.50
2022-07-29T04:47:11.364Z,99071.78
2022-07-29T04:49:41.425Z,99036.81
2022-07-29T04:52:08.373Z,99113.88
2022-07-29T04:54:35.420Z,99030.03
2022-07-29T04:57:02.667Z,99088.13
2022-07-29T04:59:29.641Z,98857.50
2022-07-29T05:01:56.887Z,98875.47
2022-07-29T05:04:24.122Z,98906.75
2022-07-29T05:06:51.157Z,98891.91
2022-07-29T05:09:18.363Z,98983.81
2022-07-29T05:11:45.342Z,98947.94
2022-07-29T05:14:12.318Z,98967.09
2022-07-29T05:16:41.187Z,99029.00
2022-07-29T05:19:13.827Z,99024.22
2022-07-29T05:21:41.679Z,99036.16
2022-07-29T05:24:09.004Z,99141.63
2022-07-29T05:26:36.486Z,99155.31
2022-07-29T05:29:03.680Z,98968.41
2022-07-29T05:31:30.648Z,98913.38
2022-07-29T05:33:58.142Z,99084.28
2022-07-29T05:36:25.062Z,99035.72
2022-07-29T05:38:53.128Z,98921.47
2022-07-29T05:41:20.969Z,98850.63
2022-07-29T05:43:48.555Z,98851.75
2022-07-29T05:46:16.112Z,98900.94
2022-07-29T05:48:43.313Z,98892.16
2022-07-29T05:51:11.062Z,98889.69
2022-07-29T05:53:38.194Z,98968.44
2022-07-29T05:56:06.606Z,98983.84
2022-07-29T05:58:34.032Z,98918.16
2022-07-29T06:01:01.569Z,98956.28
2022-07-29T06:03:29.622Z,98930.69
2022-07-29T06:05:56.899Z,98929.59
2022-07-29T06:08:24.337Z,98931.63
2022-07-29T06:10:51.662Z,98943.47
2022-07-29T06:13:19.469Z,98955.88
2022-07-29T06:15:46.672Z,98913.91
2022-07-29T06:18:14.496Z,98930.72
2022-07-29T06:20:41.898Z,98933.25
2022-07-29T06:23:09.123Z,98929.69
2022-07-29T06:25:37.621Z,98928.94
2022-07-29T06:28:04.888Z,98932.19
2022-07-29T06:30:32.077Z,98932.16
2022-07-29T06:32:59.323Z,98936.97
2022-07-29T06:35:38.501Z,98854.69
2022-07-29T06:38:31.593Z,98936.75
2022-07-29T06:41:13.158Z,98982.56
2022-07-29T06:43:52.104Z,98954.09
2022-07-29T06:46:22.650Z,98937.31
2022-07-29T06:48:51.187Z,98976.50
2022-07-29T06:51:22.739Z,98972.94
2022-07-29T06:53:58.436Z,98987.41
2022-07-29T06:56:38.822Z,98984.97
2022-07-29T06:59:10.547Z,98998.84
2022-07-29T07:01:39.490Z,98920.78
2022-07-29T07:04:07.253Z,98890.31
2022-07-29T07:06:34.785Z,98902.47
2022-07-29T07:09:02.789Z,98959.13
2022-07-29T07:11:30.013Z,98995.16
2022-07-29T07:14:02.241Z,98907.31
2022-07-29T07:16:30.733Z,98972.25
2022-07-29T07:18:57.789Z,98910.59
2022-07-29T07:21:24.716Z,98993.34
2022-07-29T07:23:51.832Z,98918.72
2022-07-29T07:26:19.105Z,98955.38
2022-07-29T07:28:46.585Z,98905.44
2022-07-29T07:31:13.684Z,98956.31
2022-07-29T07:33:40.860Z,99017.53
2022-07-29T07:36:07.931Z,98959.00
2022-07-29T07:38:35.824Z,98971.63
2022-07-29T07:41:02.986Z,98943.66
2022-07-29T07:43:30.026Z,98923.66
2022-07-29T07:45:57.002Z,98995.19
2022-07-29T07:48:24.299Z,98972.25
2022-07-29T07:50:51.589Z,98983.78
2022-07-29T07:53:19.066Z,98961.78
2022-07-29T07:58:33.585Z,98967.38
2022-07-29T08:01:00.573Z,98996.97
2022-07-29T08:03:27.731Z,99001.50
2022-07-29T08:05:55.458Z,98965.44
2022-07-29T08:08:22.530Z,98942.97
2022-07-29T08:11:02.138Z,99006.84
2022-07-29T08:13:32.900Z,98965.38
2022-07-29T08:16:12.161Z,98989.97
2022-07-29T08:18:41.349Z,98991.53
2022-07-29T08:21:08.271Z,98968.69
2022-07-29T08:23:50.522Z,98991.78
2022-07-29T08:26:21.768Z,98998.72
2022-07-29T08:28:53.400Z,98916.31
2022-07-29T08:31:20.619Z,98956.91
2022-07-29T08:33:47.615Z,98995.25
2022-07-29T08:36:14.744Z,99041.81
2022-07-29T08:38:41.663Z,98976.09
2022-07-29T08:41:08.641Z,98969.34
2022-07-29T08:43:38.356Z,98956.63
2022-07-29T08:46:05.951Z,98978.44
2022-07-29T08:48:34.273Z,98955.38
2022-07-29T08:51:02.489Z,98947.84
2022-07-29T08:53:31.610Z,98923.84
2022-07-29T08:55:59.426Z,99019.31
2022-07-29T08:58:28.922Z,98940.28
2022-07-29T09:00:57.940Z,98933.44
2022-07-29T09:03:32.309Z,98937.41
2022-07-29T09:06:03.474Z,98979.44
2022-07-29T09:08:33.190Z,98983.72
2022-07-29T09:11:04.078Z,98970.59
2022-07-29T09:13:33.126Z,98944.03
2022-07-29T09:16:01.184Z,98957.50
2022-07-29T09:18:41.212Z,99042.00
2022-07-29T09:21:30.697Z,98988.56
2022-07-29T09:24:14.008Z,98945.72
2022-07-29T09:26:45.298Z,98969.06
2022-07-29T09:29:15.924Z,99034.88
2022-07-29T09:31:46.585Z,98965.81
2022-07-29T09:34:17.967Z,99014.66
2022-07-29T09:36:50.658Z,98967.25
2022-07-29T09:39:36.091Z,98963.28
2022-07-29T09:42:06.573Z,99024.59
2022-07-29T09:45:03.664Z,98924.44
2022-07-29T09:47:50.239Z,98909.78
2022-07-29T09:50:20.575Z,98936.63
2022-07-29T09:52:52.302Z,98976.13
2022-07-29T09:55:20.075Z,99012.56
2022-07-29T09:57:48.043Z,98905.88
2022-07-29T10:00:21.011Z,98940.31
2022-07-29T10:02:48.866Z,98983.88
2022-07-29T10:05:36.610Z,98952.25
2022-07-29T10:08:04.437Z,98980.84
2022-07-29T10:10:38.271Z,98936.44
2022-07-29T10:13:15.346Z,98964.28
2022-07-29T10:15:46.917Z,99002.44
2022-07-29T10:18:15.527Z,98943.47
2022-07-29T10:20:42.807Z,99001.47
2022-07-29T10:23:10.507Z,98949.03
2022-07-29T10:25:38.065Z,99004.09
2022-07-29T10:28:07.370Z,99016.16
2022-07-29T10:30:35.018Z,99018.31
2022-07-29T10:33:39.961Z,99012.72
2022-07-29T10:36:43.397Z,99020.91
2022-07-29T10:39:26.643Z,98974.50
2022-07-29T10:42:33.344Z,98968.25
2022-07-29T10:45:04.618Z,99010.09
2022-07-29T10:47:32.332Z,99053.28
2022-07-29T10:50:05.220Z,99022.31
2022-07-29T10:52:50.541Z,98959.38
2022-07-29T10:55:43.653Z,99005.63
2022-07-29T10:58:18.935Z,98942.69
2022-07-29T11:00:49.474Z,98949.91
2022-07-29T11:03:48.975Z,99010.59
2022-07-29T11:06:18.000Z,98976.88
2022-07-29T11:09:34.816Z,98925.66
2022-07-29T11:12:02.921Z,98950.59
2022-07-29T11:14:55.886Z,98985.63
2022-07-29T11:17:23.819Z,98975.91
2022-07-29T11:19:52.777Z,98930.50
2022-07-29T11:22:45.834Z,98943.38
2022-07-29T11:25:18.102Z,98945.34
2022-07-29T11:27:46.114Z,98939.50
2022-07-29T11:30:14.532Z,98950.72
2022-07-29T11:38:32.065Z,98967.69
2022-07-29T11:41:18.565Z,98978.41
2022-07-29T11:44:00.751Z,98967.84
2022-07-29T11:46:54.011Z,98975.88
2022-07-29T11:49:32.091Z,98962.63
2022-07-29T11:52:04.906Z,98997.00
2022-07-29T11:54:38.797Z,98993.84
2022-07-29T11:57:29.495Z,98965.03
2022-07-29T12:00:12.295Z,98968.28
2022-07-29T12:02:45.093Z,98968.59
2022-07-29T12:05:23.944Z,99013.41
2022-07-29T12:07:03.313Z,98937.25
2022-07-29T12:08:21.154Z,98978.22
2022-07-29T12:10:50.282Z,98922.97
2022-07-29T12:13:20.585Z,99000.16
2022-07-29T12:16:00.030Z,99027.06
2022-07-29T12:18:28.017Z,98991.03
2022-07-29T12:21:03.800Z,98966.59
2022-07-29T12:23:34.823Z,98985.91
2022-07-29T12:26:07.696Z,98945.63
2022-07-29T12:28:41.154Z,98939.56
2022-07-29T12:31:42.014Z,98998.44
2022-07-29T12:34:03.129Z,98972.28
2022-07-29T12:36:30.348Z,98898.44
2022-07-29T12:38:57.664Z,98963.88
2022-07-29T12:41:24.795Z,99001.38
2022-07-29T12:43:55.865Z,98992.81
2022-07-29T12:46:23.080Z,98943.69
2022-07-29T12:48:55.849Z,98969.25
2022-07-29T12:51:40.710Z,98988.06
2022-07-29T12:54:12.233Z,98929.69
2022-07-29T12:56:43.535Z,98985.28
2022-07-29T12:59:23.150Z,98951.06
2022-07-29T13:01:53.115Z,98999.44
2022-07-29T13:04:28.542Z,99030.84
2022-07-29T13:07:08.117Z,98992.25
2022-07-29T13:09:49.312Z,99006.72
2022-07-29T13:12:17.226Z,98994.63
2022-07-29T13:14:47.866Z,99005.84
2022-07-29T13:17:28.702Z,98991.91
2022-07-29T13:20:13.467Z,99001.56
2022-07-29T13:22:43.201Z,98969.88
2022-07-29T13:25:10.968Z,98998.41
2022-07-29T13:27:39.643Z,99029.59
2022-07-29T13:30:10.318Z,98976.75
2022-07-29T13:32:38.573Z,99035.94
2022-07-29T13:35:08.993Z,98985.66
2022-07-29T13:37:39.379Z,98962.16
2022-07-29T13:40:09.233Z,99009.19
2022-07-29T13:42:36.807Z,99001.16
2022-07-29T13:45:05.447Z,99010.53
2022-07-29T13:47:33.401Z,99002.38
2022-07-29T13:50:02.347Z,99011.03
2022-07-29T13:52:29.697Z,98968.50
2022-07-29T13:54:57.566Z,98963.28
2022-07-29T13:57:25.065Z,98973.59
2022-07-29T13:59:54.362Z,98971.69
2022-07-29T14:02:25.844Z,98979.63
2022-07-29T14:04:55.348Z,98947.72
2022-07-29T14:07:23.884Z,98971.28
2022-07-29T14:09:51.467Z,98908.31
2022-07-29T14:12:19.126Z,98991.47
2022-07-29T14:14:47.246Z,98909.38
2022-07-29T14:17:15.701Z,98936.09
2022-07-29T14:19:43.160Z,98971.53
2022-07-29T14:22:10.852Z,98940.91
2022-07-29T14:24:39.355Z,98968.78
2022-07-29T14:27:08.192Z,98957.06
2022-07-29T14:29:38.137Z,98961.34
2022-07-29T14:32:11.588Z,98924.97
2022-07-29T14:34:39.157Z,98960.69
2022-07-29T14:37:07.901Z,98954.66
2022-07-29T14:39:43.090Z,98949.03
2022-07-29T14:42:12.654Z,98986.69
2022-07-29T14:44:42.092Z,99000.69
2022-07-29T14:47:09.453Z,98975.38
2022-07-29T14:49:37.033Z,98941.25
2022-07-29T14:52:04.750Z,98979.09
2022-07-29T14:54:31.959Z,98963.22
2022-07-29T14:56:59.037Z,99017.25
2022-07-29T14:59:27.093Z,99028.34
2022-07-29T15:01:54.467Z,98962.66
2022-07-29T15:04:21.481Z,98985.72
2022-07-29T15:06:48.961Z,98961.00
2022-07-29T15:09:16.408Z,98951.56
2022-07-29T15:11:43.573Z,98937.03
2022-07-29T15:14:10.857Z,98976.56
2022-07-29T15:16:43.562Z,98943.28
2022-07-29T15:19:11.744Z,98994.28
2022-07-29T15:21:41.597Z,99026.69
2022-07-29T15:24:20.251Z,99006.88
2022-07-29T15:26:48.419Z,98993.66
2022-07-29T15:29:15.972Z,99011.34
2022-07-29T15:31:43.925Z,99024.06
2022-07-29T15:34:11.119Z,99020.97
2022-07-29T15:36:54.034Z,99022.03
2022-07-29T15:39:22.922Z,98973.88
2022-07-29T15:41:51.496Z,99045.94
2022-07-29T15:44:19.021Z,99086.53
2022-07-29T15:47:04.644Z,98972.09
2022-07-29T15:49:47.290Z,98961.06
2022-07-29T15:52:25.471Z,98995.53
2022-07-29T15:54:55.350Z,99044.44
2022-07-29T15:57:23.425Z,99033.88
2022-07-29T15:59:50.808Z,99045.22
2022-07-29T16:02:17.796Z,98991.91
2022-07-29T16:04:44.913Z,98971.03
2022-07-29T16:07:12.335Z,99019.19
2022-07-29T16:09:42.251Z,98958.13
2022-07-29T16:12:12.674Z,99014.72
2022-07-29T16:14:44.414Z,98956.75
2022-07-29T16:17:14.994Z,98986.66
2022-07-29T16:19:44.307Z,98984.59
2022-07-29T16:22:12.516Z,98967.53
2022-07-29T16:24:39.674Z,99065.97
2022-07-29T16:27:06.986Z,98969.81
2022-07-29T16:29:34.278Z,98968.25
2022-07-29T16:32:02.392Z,98939.00
2022-07-29T16:34:29.822Z,98915.84
2022-07-29T16:36:56.850Z,98937.69
2022-07-29T16:39:23.799Z,98957.28
2022-07-29T16:41:50.872Z,98970.25
2022-07-29T16:44:17.941Z,99024.13
2022-07-29T16:46:45.818Z,98944.47
2022-07-29T16:49:19.039Z,98948.44
2022-07-29T16:51:48.520Z,98905.56
2022-07-29T16:54:15.512Z,98964.19
2022-07-29T16:56:42.592Z,98955.63
2022-07-29T16:59:09.830Z,98925.69
2022-07-29T17:01:36.972Z,98953.03
2022-07-29T17:04:07.181Z,98978.69
2022-07-29T17:06:39.971Z,98921.44
2022-07-29T17:09:09.896Z,98962.03
2022-07-29T17:11:52.325Z,98933.34
2022-07-29T17:14:28.303Z,98955.88
2022-07-29T17:17:01.177Z,98983.16
2022-07-29T17:19:35.698Z,98977.56
2022-07-29T17:22:12.651Z,99001.69
2022-07-29T17:24:43.118Z,98950.03
2022-07-29T17:27:11.044Z,98933.84
2022-07-29T17:29:39.293Z,98924.06
2022-07-29T17:32:08.977Z,98947.34
2022-07-29T17:34:37.608Z,98936.63
2022-07-29T17:37:07.814Z,98961.53
2022-07-29T17:39:35.635Z,98938.59
2022-07-29T17:42:04.237Z,98930.38
2022-07-29T17:44:31.246Z,98954.72
2022-07-29T17:47:00.574Z,98955.56
2022-07-29T17:49:28.188Z,98943.53
2022-07-29T17:51:59.047Z,98941.13
2022-07-29T17:54:28.015Z,98934.28
2022-07-29T17:56:55.322Z,98973.22
2022-07-29T17:59:22.790Z,98968.19
2022-07-29T18:01:49.773Z,98964.66
2022-07-29T18:04:20.885Z,98963.41
2022-07-29T18:06:48.074Z,98924.13
2022-07-29T18:09:15.117Z,98935.44
2022-07-29T18:11:44.369Z,98920.25
2022-07-29T18:14:13.456Z,98896.91
2022-07-29T18:16:40.771Z,98955.88
2022-07-29T18:19:07.878Z,98925.81
2022-07-29T18:21:43.645Z,98952.34
2022-07-29T18:24:20.599Z,98922.81
2022-07-29T18:26:47.757Z,98954.91
2022-07-29T18:29:14.839Z,98949.56
2022-07-29T18:31:42.390Z,98937.00
2022-07-29T18:34:09.350Z,98900.28
2022-07-29T18:36:36.604Z,98956.97
2022-07-29T18:39:03.847Z,98909.91
2022-07-29T18:41:31.319Z,98953.56
2022-07-29T18:43:58.811Z,98938.03
2022-07-29T18:46:25.814Z,98917.69
2022-07-29T18:48:53.435Z,98914.88
2022-07-29T18:51:20.372Z,98935.59
2022-07-29T18:53:47.667Z,98887.66
2022-07-29T18:56:14.718Z,98932.28
2022-07-29T18:58:41.635Z,98944.63
2022-07-29T19:01:11.446Z,98916.84
2022-07-29T19:03:41.954Z,98963.53
2022-07-29T19:06:09.320Z,98894.53
2022-07-29T19:08:36.321Z,98906.66
2022-07-29T19:11:03.489Z,98965.94
2022-07-29T19:13:30.963Z,98958.25
2022-07-29T19:15:58.124Z,98978.53
2022-07-29T19:18:25.350Z,98906.25
2022-07-29T19:20:52.268Z,98886.53
2022-07-29T19:23:19.680Z,98906.25
2022-07-29T19:25:53.790Z,98958.59
2022-07-29T19:28:22.573Z,98917.28
2022-07-29T19:30:50.009Z,98958.19
2022-07-29T19:33:18.837Z,98986.66
2022-07-29T19:35:49.322Z,98997.09
2022-07-29T19:38:18.606Z,98969.38
2022-07-29T19:40:45.610Z,98947.56
2022-07-29T19:43:50.526Z,98945.41
2022-07-29T19:45:59.697Z,98991.53
2022-07-29T19:48:26.675Z,98966.34
2022-07-29T19:50:53.759Z,99009.66
2022-07-29T19:53:20.774Z,98965.78
2022-07-29T19:55:47.832Z,98970.41
2022-07-29T19:58:16.180Z,98955.72
2022-07-29T20:00:43.609Z,99018.47
2022-07-29T20:03:10.852Z,98981.53
2022-07-29T20:05:38.093Z,98963.53
2022-07-29T20:08:06.226Z,99067.88
2022-07-29T20:10:33.887Z,98971.19
2022-07-29T20:13:00.973Z,99048.06
2022-07-29T20:15:28.094Z,99043.81
2022-07-29T20:17:57.316Z,98995.31
2022-07-29T20:20:25.733Z,99053.53
2022-07-29T20:22:53.804Z,99050.69
2022-07-29T20:25:20.806Z,99047.59
2022-07-29T20:27:50.578Z,99058.25
2022-07-29T20:30:19.132Z,98992.03
2022-07-29T20:32:46.104Z,99080.81
2022-07-29T20:35:13.915Z,99081.13
2022-07-29T20:37:52.342Z,99096.44
2022-07-29T20:40:25.713Z,99071.72
2022-07-29T20:42:54.667Z,99101.44
2022-07-29T20:45:23.847Z,99006.78
2022-07-29T20:47:52.163Z,99071.16
2022-07-29T20:50:23.883Z,99061.28
2022-07-29T20:52:52.613Z,99083.81
2022-07-29T20:55:19.895Z,99071.63
2022-07-29T20:57:47.211Z,99105.38
2022-07-29T21:00:14.714Z,98998.63
2022-07-29T21:02:41.968Z,99105.78
2022-07-29T21:05:09.708Z,99113.66
2022-07-29T21:07:36.859Z,99121.63
2022-07-29T21:10:04.899Z,99103.31
2022-07-29T21:12:33.658Z,99071.69
2022-07-29T21:15:05.352Z,99108.88
2022-07-29T21:17:38.996Z,99125.47
2022-07-29T21:20:08.525Z,99133.13
2022-07-29T21:22:35.557Z,99100.78
2022-07-29T21:25:02.949Z,99092.31
2022-07-29T21:27:48.313Z,99131.34
2022-07-29T21:30:15.715Z,99160.41
2022-07-29T21:32:42.750Z,99111.91
2022-07-29T21:35:23.384Z,99092.97
2022-07-29T21:37:59.293Z,99168.88
2022-07-29T21:40:26.402Z,99150.41
2022-07-29T21:42:53.598Z,99137.81
2022-07-29T21:45:20.649Z,99154.44
2022-07-29T21:47:47.594Z,99146.97
2022-07-29T21:50:14.713Z,99146.78
2022-07-29T21:52:41.631Z,99177.16
2022-07-29T21:55:10.553Z,99140.72
2022-07-29T21:57:38.526Z,99172.47
2022-07-29T22:00:10.511Z,99168.03
2022-07-29T22:02:40.202Z,99163.59
2022-07-29T22:05:07.613Z,99153.03
2022-07-29T22:07:56.477Z,99104.78
2022-07-29T22:10:22.638Z,99079.41
2022-07-29T22:12:55.518Z,99123.81
2022-07-29T22:15:23.276Z,99061.91
2022-07-29T22:17:50.764Z,99237.38
2022-07-29T22:20:18.157Z,99110.31
2022-07-29T22:22:45.143Z,99152.31
2022-07-29T22:25:12.581Z,99201.16
2022-07-29T22:27:39.883Z,99224.34
2022-07-29T22:30:08.046Z,99067.00
2022-07-29T22:32:35.163Z,99046.97
2022-07-29T22:35:02.134Z,99111.94
2022-07-29T22:37:29.210Z,99231.00
2022-07-29T22:39:56.641Z,99173.69
2022-07-29T22:42:23.621Z,99237.81
2022-07-29T22:44:51.131Z,99252.38
2022-07-29T22:47:18.164Z,99251.03
2022-07-29T22:50:06.565Z,99235.00
2022-07-29T22:52:33.556Z,99170.75
2022-07-29T22:55:00.664Z,99166.03
2022-07-29T22:57:27.977Z,99255.97
2022-07-29T22:59:54.900Z,99128.66
2022-07-29T23:02:22.052Z,99264.59
2022-07-29T23:04:49.137Z,99254.38
2022-07-29T23:07:16.168Z,99271.25
2022-07-29T23:09:43.262Z,99248.03
2022-07-29T23:12:10.355Z,99220.31
2022-07-29T23:14:37.684Z,99298.72
2022-07-29T23:17:05.391Z,99263.50
2022-07-29T23:19:32.382Z,99169.78
2022-07-29T23:21:59.748Z,99215.19
2022-07-29T23:24:26.706Z,99317.88
2022-07-29T23:26:53.911Z,99131.38
2022-07-29T23:29:20.878Z,99239.69
2022-07-29T23:31:48.501Z,99288.59
2022-07-29T23:34:16.006Z,99263.47
2022-07-29T23:36:43.211Z,99253.28
2022-07-29T23:39:13.313Z,99156.78
2022-07-29T23:41:40.671Z,99279.25
2022-07-29T23:44:07.765Z,99105.63
2022-07-29T23:46:34.968Z,99310.63
2022-07-29T23:49:02.254Z,99147.53
2022-07-29T23:51:29.364Z,99107.94
2022-07-29T23:53:56.634Z,99347.81
2022-07-29T23:56:23.902Z,99308.88
2022-07-29T23:58:50.977Z,99260.97
